sensor_id;sensor_type;location;lat;lon;timestamp;temperature;humidity
21047;DHT22;10682;50.874;3.656;2023-05-14T00:02:11;12.10;99.90
21047;DHT22;10682;50.874;3.656;2023-05-14T00:04:38;12.10;99.90
21047;DHT22;10682;50.874;3.656;2023-05-14T00:07:06;12.20;99.90
21047;DHT22;10682;50.874;3.656;2023-05-14T00:09:33;12.20;99.90
21047;DHT22;10682;50.874;3.656;2023-05-14T00:12:01;12.20;99.90
21047;DHT22;10682;50.874;3.656;2023-05-14T00:14:28;12.20;99.90
21047;DHT22;10682;50.874;3.656;2023-05-14T00:16:55;12.10;99.90
21047;DHT22;10682;50.874;3.656;2023-05-14T00:19:21;12.10;99.90
21047;DHT22;10682;50.874;3.656;2023-05-14T00:21:49;12.20;99.90
21047;DHT22;10682;50.874;3.656;2023-05-14T00:24:16;12.20;99.90
21047;DHT22;10682;50.874;3.656;2023-05-14T00:26:43;12.10;99.90
21047;DHT22;10682;50.874;3.656;2023-05-14T00:29:10;12.20;99.90
21047;DHT22;10682;50.874;3.656;2023-05-14T00:31:37;12.10;99.90
21047;DHT22;10682;50.874;3.656;2023-05-14T00:34:04;12.20;99.90
21047;DHT22;10682;50.874;3.656;2023-05-14T00:36:31;12.10;99.90
21047;DHT22;10682;50.874;3.656;2023-05-14T00:38:58;12.10;99.90
21047;DHT22;10682;50.874;3.656;2023-05-14T00:41:25;12.20;99.90
21047;DHT22;10682;50.874;3.656;2023-05-14T00:43:52;12.20;99.90
21047;DHT22;10682;50.874;3.656;2023-05-14T00:46:19;12.20;99.90
21047;DHT22;10682;50.874;3.656;2023-05-14T00:48:46;12.20;99.90
21047;DHT22;10682;50.874;3.656;2023-05-14T00:51:13;12.20;99.90
21047;DHT22;10682;50.874;3.656;2023-05-14T00:53:40;12.10;99.90
21047;DHT22;10682;50.874;3.656;2023-05-14T00:56:07;12.20;99.90
21047;DHT22;10682;50.874;3.656;2023-05-14T00:58:36;12.20;99.90
21047;DHT22;10682;50.874;3.656;2023-05-14T01:01:03;12.20;99.90
21047;DHT22;10682;50.874;3.656;2023-05-14T01:03:31;12.20;99.90
21047;DHT22;10682;50.874;3.656;2023-05-14T01:06:25;12.20;99.90
21047;DHT22;10682;50.874;3.656;2023-05-14T01:11:54;12.20;99.90
21047;DHT22;10682;50.874;3.656;2023-05-14T01:17:17;12.20;99.90
21047;DHT22;10682;50.874;3.656;2023-05-14T01:19:47;12.20;99.90
21047;DHT22;10682;50.874;3.656;2023-05-14T01:22:14;12.20;99.90
21047;DHT22;10682;50.874;3.656;2023-05-14T01:24:41;12.20;99.90
21047;DHT22;10682;50.874;3.656;2023-05-14T01:30:04;12.20;99.90
21047;DHT22;10682;50.874;3.656;2023-05-14T01:32:40;12.10;99.90
21047;DHT22;10682;50.874;3.656;2023-05-14T01:35:08;12.10;99.90
21047;DHT22;10682;50.874;3.656;2023-05-14T01:37:36;12.20;99.90
21047;DHT22;10682;50.874;3.656;2023-05-14T01:40:05;12.10;99.90
21047;DHT22;10682;50.874;3.656;2023-05-14T01:42:32;12.10;99.90
21047;DHT22;10682;50.874;3.656;2023-05-14T01:45:00;12.10;99.90
21047;DHT22;10682;50.874;3.656;2023-05-14T01:47:27;12.10;99.90
21047;DHT22;10682;50.874;3.656;2023-05-14T01:49:55;12.10;99.90
21047;DHT22;10682;50.874;3.656;2023-05-14T01:52:21;12.10;99.90
21047;DHT22;10682;50.874;3.656;2023-05-14T01:54:49;12.10;99.90
21047;DHT22;10682;50.874;3.656;2023-05-14T01:57:16;12.10;99.90
21047;DHT22;10682;50.874;3.656;2023-05-14T01:59:43;12.10;99.90
21047;DHT22;10682;50.874;3.656;2023-05-14T02:02:10;12.10;99.90
21047;DHT22;10682;50.874;3.656;2023-05-14T02:04:36;12.10;99.90
21047;DHT22;10682;50.874;3.656;2023-05-14T02:07:04;12.20;99.90
21047;DHT22;10682;50.874;3.656;2023-05-14T02:09:31;12.20;99.90
21047;DHT22;10682;50.874;3.656;2023-05-14T02:11:58;12.20;99.90
21047;DHT22;10682;50.874;3.656;2023-05-14T02:14:25;12.10;99.90
21047;DHT22;10682;50.874;3.656;2023-05-14T02:16:51;12.10;99.90
21047;DHT22;10682;50.874;3.656;2023-05-14T02:19:18;12.10;99.90
21047;DHT22;10682;50.874;3.656;2023-05-14T02:21:46;12.10;99.90
21047;DHT22;10682;50.874;3.656;2023-05-14T02:24:13;12.10;99.90
21047;DHT22;10682;50.874;3.656;2023-05-14T02:26:40;12.10;99.90
21047;DHT22;10682;50.874;3.656;2023-05-14T02:29:07;12.10;99.90
21047;DHT22;10682;50.874;3.656;2023-05-14T02:31:34;12.10;99.90
21047;DHT22;10682;50.874;3.656;2023-05-14T02:34:02;12.10;99.90
21047;DHT22;10682;50.874;3.656;2023-05-14T02:36:29;12.10;99.90
21047;DHT22;10682;50.874;3.656;2023-05-14T02:38:58;12.10;99.90
21047;DHT22;10682;50.874;3.656;2023-05-14T02:41:26;12.10;99.90
21047;DHT22;10682;50.874;3.656;2023-05-14T02:43:53;12.10;99.90
21047;DHT22;10682;50.874;3.656;2023-05-14T02:46:20;12.10;99.90
21047;DHT22;10682;50.874;3.656;2023-05-14T02:48:48;12.10;99.90
21047;DHT22;10682;50.874;3.656;2023-05-14T02:51:14;12.10;99.90
21047;DHT22;10682;50.874;3.656;2023-05-14T02:53:42;12.10;99.90
21047;DHT22;10682;50.874;3.656;2023-05-14T02:56:09;12.10;99.90
21047;DHT22;10682;50.874;3.656;2023-05-14T02:58:36;12.10;99.90
21047;DHT22;10682;50.874;3.656;2023-05-14T03:01:03;12.10;99.90
21047;DHT22;10682;50.874;3.656;2023-05-14T03:03:30;12.10;99.90
21047;DHT22;10682;50.874;3.656;2023-05-14T03:05:58;12.10;99.90
21047;DHT22;10682;50.874;3.656;2023-05-14T03:08:25;12.10;99.90
21047;DHT22;10682;50.874;3.656;2023-05-14T03:10:52;12.10;99.90
21047;DHT22;10682;50.874;3.656;2023-05-14T03:13:19;12.00;99.90
21047;DHT22;10682;50.874;3.656;2023-05-14T03:15:46;12.00;99.90
21047;DHT22;10682;50.874;3.656;2023-05-14T03:18:13;12.10;99.90
21047;DHT22;10682;50.874;3.656;2023-05-14T03:20:41;12.00;99.90
21047;DHT22;10682;50.874;3.656;2023-05-14T03:23:07;12.00;99.90
21047;DHT22;10682;50.874;3.656;2023-05-14T03:25:34;12.00;99.90
21047;DHT22;10682;50.874;3.656;2023-05-14T03:28:02;12.00;99.90
21047;DHT22;10682;50.874;3.656;2023-05-14T03:30:29;12.00;99.90
21047;DHT22;10682;50.874;3.656;2023-05-14T03:32:56;12.00;99.90
21047;DHT22;10682;50.874;3.656;2023-05-14T03:35:23;12.00;99.90
21047;DHT22;10682;50.874;3.656;2023-05-14T03:37:50;12.00;99.90
21047;DHT22;10682;50.874;3.656;2023-05-14T03:40:18;11.90;99.90
21047;DHT22;10682;50.874;3.656;2023-05-14T03:42:47;11.90;99.90
21047;DHT22;10682;50.874;3.656;2023-05-14T03:45:14;11.90;99.90
21047;DHT22;10682;50.874;3.656;2023-05-14T03:47:41;11.90;99.90
21047;DHT22;10682;50.874;3.656;2023-05-14T03:50:08;11.90;99.90
21047;DHT22;10682;50.874;3.656;2023-05-14T03:52:35;11.90;99.90
21047;DHT22;10682;50.874;3.656;2023-05-14T03:55:02;12.00;99.90
21047;DHT22;10682;50.874;3.656;2023-05-14T03:57:29;12.00;99.90
21047;DHT22;10682;50.874;3.656;2023-05-14T03:59:56;12.00;99.90
21047;DHT22;10682;50.874;3.656;2023-05-14T04:02:24;12.00;99.90
21047;DHT22;10682;50.874;3.656;2023-05-14T04:04:51;11.90;99.90
21047;DHT22;10682;50.874;3.656;2023-05-14T04:07:18;11.90;99.90
21047;DHT22;10682;50.874;3.656;2023-05-14T04:09:45;11.90;99.90
21047;DHT22;10682;50.874;3.656;2023-05-14T04:12:12;11.90;99.90
21047;DHT22;10682;50.874;3.656;2023-05-14T04:14:39;11.90;99.90
21047;DHT22;10682;50.874;3.656;2023-05-14T04:17:06;11.90;99.90
21047;DHT22;10682;50.874;3.656;2023-05-14T04:19:33;11.90;99.90
21047;DHT22;10682;50.874;3.656;2023-05-14T04:21:59;11.90;99.90
21047;DHT22;10682;50.874;3.656;2023-05-14T04:24:26;11.90;99.90
21047;DHT22;10682;50.874;3.656;2023-05-14T04:26:53;11.90;99.90
21047;DHT22;10682;50.874;3.656;2023-05-14T04:29:20;11.90;99.90
21047;DHT22;10682;50.874;3.656;2023-05-14T04:31:48;11.90;99.90
21047;DHT22;10682;50.874;3.656;2023-05-14T04:34:15;11.90;99.90
21047;DHT22;10682;50.874;3.656;2023-05-14T04:36:42;12.00;99.90
21047;DHT22;10682;50.874;3.656;2023-05-14T04:39:09;11.90;99.90
21047;DHT22;10682;50.874;3.656;2023-05-14T04:41:38;11.90;99.90
21047;DHT22;10682;50.874;3.656;2023-05-14T04:44:05;11.90;99.90
21047;DHT22;10682;50.874;3.656;2023-05-14T04:46:32;11.90;99.90
21047;DHT22;10682;50.874;3.656;2023-05-14T04:48:59;11.90;99.90
21047;DHT22;10682;50.874;3.656;2023-05-14T04:51:26;11.90;99.90
21047;DHT22;10682;50.874;3.656;2023-05-14T04:53:54;11.90;99.90
21047;DHT22;10682;50.874;3.656;2023-05-14T04:56:21;11.80;99.90
21047;DHT22;10682;50.874;3.656;2023-05-14T04:58:47;11.80;99.90
21047;DHT22;10682;50.874;3.656;2023-05-14T05:01:14;11.80;99.90
21047;DHT22;10682;50.874;3.656;2023-05-14T05:03:41;11.80;99.90
21047;DHT22;10682;50.874;3.656;2023-05-14T05:06:08;11.80;99.90
21047;DHT22;10682;50.874;3.656;2023-05-14T05:08:36;11.80;99.90
21047;DHT22;10682;50.874;3.656;2023-05-14T05:11:03;11.80;99.90
21047;DHT22;10682;50.874;3.656;2023-05-14T05:13:30;11.70;99.90
21047;DHT22;10682;50.874;3.656;2023-05-14T05:15:58;11.70;99.90
21047;DHT22;10682;50.874;3.656;2023-05-14T05:18:25;11.70;99.90
21047;DHT22;10682;50.874;3.656;2023-05-14T05:20:52;11.70;99.90
21047;DHT22;10682;50.874;3.656;2023-05-14T05:23:19;11.70;99.90
21047;DHT22;10682;50.874;3.656;2023-05-14T05:25:46;11.80;99.90
21047;DHT22;10682;50.874;3.656;2023-05-14T05:28:13;11.80;99.90
21047;DHT22;10682;50.874;3.656;2023-05-14T05:30:40;11.80;99.90
21047;DHT22;10682;50.874;3.656;2023-05-14T05:33:07;11.80;99.90
21047;DHT22;10682;50.874;3.656;2023-05-14T05:35:34;11.70;99.90
21047;DHT22;10682;50.874;3.656;2023-05-14T05:38:01;11.70;99.90
21047;DHT22;10682;50.874;3.656;2023-05-14T05:40:28;11.70;99.90
21047;DHT22;10682;50.874;3.656;2023-05-14T05:42:55;11.80;99.90
21047;DHT22;10682;50.874;3.656;2023-05-14T05:45:21;11.80;99.90
21047;DHT22;10682;50.874;3.656;2023-05-14T05:47:48;11.80;99.90
21047;DHT22;10682;50.874;3.656;2023-05-14T05:50:16;11.80;99.90
21047;DHT22;10682;50.874;3.656;2023-05-14T05:52:45;11.80;99.90
21047;DHT22;10682;50.874;3.656;2023-05-14T05:55:12;11.80;99.90
21047;DHT22;10682;50.874;3.656;2023-05-14T05:57:39;11.80;99.90
21047;DHT22;10682;50.874;3.656;2023-05-14T06:00:06;11.80;99.90
21047;DHT22;10682;50.874;3.656;2023-05-14T06:02:40;11.90;99.90
21047;DHT22;10682;50.874;3.656;2023-05-14T06:05:08;12.00;99.90
21047;DHT22;10682;50.874;3.656;2023-05-14T06:07:36;12.00;99.90
21047;DHT22;10682;50.874;3.656;2023-05-14T06:10:04;12.00;99.90
21047;DHT22;10682;50.874;3.656;2023-05-14T06:12:32;12.00;99.90
21047;DHT22;10682;50.874;3.656;2023-05-14T06:14:59;12.00;99.90
21047;DHT22;10682;50.874;3.656;2023-05-14T06:17:26;12.10;99.90
21047;DHT22;10682;50.874;3.656;2023-05-14T06:19:53;12.00;99.90
21047;DHT22;10682;50.874;3.656;2023-05-14T06:22:20;12.00;99.90
21047;DHT22;10682;50.874;3.656;2023-05-14T06:24:47;12.00;99.90
21047;DHT22;10682;50.874;3.656;2023-05-14T06:27:14;12.10;99.90
21047;DHT22;10682;50.874;3.656;2023-05-14T06:29:41;12.10;99.90
21047;DHT22;10682;50.874;3.656;2023-05-14T06:32:08;12.10;99.90
21047;DHT22;10682;50.874;3.656;2023-05-14T06:34:36;12.10;99.90
21047;DHT22;10682;50.874;3.656;2023-05-14T06:37:03;12.10;99.90
21047;DHT22;10682;50.874;3.656;2023-05-14T06:39:30;12.20;99.90
21047;DHT22;10682;50.874;3.656;2023-05-14T06:41:57;12.20;99.90
21047;DHT22;10682;50.874;3.656;2023-05-14T06:44:24;12.30;99.90
21047;DHT22;10682;50.874;3.656;2023-05-14T06:46:51;12.40;99.90
21047;DHT22;10682;50.874;3.656;2023-05-14T06:49:18;12.40;99.90
21047;DHT22;10682;50.874;3.656;2023-05-14T06:51:45;12.50;99.90
21047;DHT22;10682;50.874;3.656;2023-05-14T06:54:12;12.50;99.90
21047;DHT22;10682;50.874;3.656;2023-05-14T06:56:39;12.60;99.90
21047;DHT22;10682;50.874;3.656;2023-05-14T06:59:06;12.60;99.90
21047;DHT22;10682;50.874;3.656;2023-05-14T07:01:32;12.60;99.90
21047;DHT22;10682;50.874;3.656;2023-05-14T07:04:01;12.50;99.90
21047;DHT22;10682;50.874;3.656;2023-05-14T07:06:28;12.50;99.90
21047;DHT22;10682;50.874;3.656;2023-05-14T07:08:55;12.50;99.90
21047;DHT22;10682;50.874;3.656;2023-05-14T07:11:22;12.50;99.90
21047;DHT22;10682;50.874;3.656;2023-05-14T07:13:49;12.40;99.90
21047;DHT22;10682;50.874;3.656;2023-05-14T07:16:16;12.50;99.90
21047;DHT22;10682;50.874;3.656;2023-05-14T07:18:43;12.60;99.90
21047;DHT22;10682;50.874;3.656;2023-05-14T07:21:11;12.60;99.90
21047;DHT22;10682;50.874;3.656;2023-05-14T07:23:38;12.60;99.90
21047;DHT22;10682;50.874;3.656;2023-05-14T07:26:06;12.60;99.90
21047;DHT22;10682;50.874;3.656;2023-05-14T07:28:34;12.70;99.90
21047;DHT22;10682;50.874;3.656;2023-05-14T07:31:01;12.70;99.90
21047;DHT22;10682;50.874;3.656;2023-05-14T07:33:30;12.60;99.90
21047;DHT22;10682;50.874;3.656;2023-05-14T07:35:57;12.60;99.90
21047;DHT22;10682;50.874;3.656;2023-05-14T07:38:24;12.60;99.90
21047;DHT22;10682;50.874;3.656;2023-05-14T07:40:51;12.60;99.90
21047;DHT22;10682;50.874;3.656;2023-05-14T07:43:18;12.70;99.90
21047;DHT22;10682;50.874;3.656;2023-05-14T07:45:45;12.60;99.90
21047;DHT22;10682;50.874;3.656;2023-05-14T07:48:12;12.70;99.90
21047;DHT22;10682;50.874;3.656;2023-05-14T07:50:39;12.70;99.90
21047;DHT22;10682;50.874;3.656;2023-05-14T07:53:06;12.70;99.90
21047;DHT22;10682;50.874;3.656;2023-05-14T07:55:33;12.80;99.90
21047;DHT22;10682;50.874;3.656;2023-05-14T07:58:00;12.80;99.90
21047;DHT22;10682;50.874;3.656;2023-05-14T08:00:27;12.90;99.90
21047;DHT22;10682;50.874;3.656;2023-05-14T08:02:54;12.90;99.90
21047;DHT22;10682;50.874;3.656;2023-05-14T08:05:22;12.90;99.90
21047;DHT22;10682;50.874;3.656;2023-05-14T08:07:48;12.90;99.90
21047;DHT22;10682;50.874;3.656;2023-05-14T08:10:15;12.90;99.90
21047;DHT22;10682;50.874;3.656;2023-05-14T08:12:42;13.00;99.90
21047;DHT22;10682;50.874;3.656;2023-05-14T08:15:09;13.00;99.90
21047;DHT22;10682;50.874;3.656;2023-05-14T08:17:36;13.10;99.90
21047;DHT22;10682;50.874;3.656;2023-05-14T08:20:04;13.10;99.90
21047;DHT22;10682;50.874;3.656;2023-05-14T08:22:32;13.20;99.90
21047;DHT22;10682;50.874;3.656;2023-05-14T08:24:59;13.20;99.90
21047;DHT22;10682;50.874;3.656;2023-05-14T08:27:28;13.10;99.90
21047;DHT22;10682;50.874;3.656;2023-05-14T08:29:55;13.10;99.90
21047;DHT22;10682;50.874;3.656;2023-05-14T08:32:22;13.30;99.90
21047;DHT22;10682;50.874;3.656;2023-05-14T08:34:50;13.30;99.90
21047;DHT22;10682;50.874;3.656;2023-05-14T08:37:17;13.30;99.90
21047;DHT22;10682;50.874;3.656;2023-05-14T08:39:44;13.40;99.90
21047;DHT22;10682;50.874;3.656;2023-05-14T08:42:12;13.40;99.90
21047;DHT22;10682;50.874;3.656;2023-05-14T08:44:47;13.40;99.90
21047;DHT22;10682;50.874;3.656;2023-05-14T08:47:20;13.50;99.90
21047;DHT22;10682;50.874;3.656;2023-05-14T08:49:54;13.60;99.90
21047;DHT22;10682;50.874;3.656;2023-05-14T08:52:30;13.70;99.90
21047;DHT22;10682;50.874;3.656;2023-05-14T08:55:04;13.80;99.90
21047;DHT22;10682;50.874;3.656;2023-05-14T08:57:32;14.00;99.90
21047;DHT22;10682;50.874;3.656;2023-05-14T09:00:00;14.00;99.90
21047;DHT22;10682;50.874;3.656;2023-05-14T09:02:39;14.10;99.90
21047;DHT22;10682;50.874;3.656;2023-05-14T09:05:07;14.20;99.90
21047;DHT22;10682;50.874;3.656;2023-05-14T09:07:35;14.40;99.90
21047;DHT22;10682;50.874;3.656;2023-05-14T09:10:02;14.40;99.90
21047;DHT22;10682;50.874;3.656;2023-05-14T09:12:30;14.40;99.90
21047;DHT22;10682;50.874;3.656;2023-05-14T09:14:57;14.40;99.90
21047;DHT22;10682;50.874;3.656;2023-05-14T09:17:25;14.50;99.90
21047;DHT22;10682;50.874;3.656;2023-05-14T09:19:53;14.40;99.90
21047;DHT22;10682;50.874;3.656;2023-05-14T09:22:20;14.50;99.90
21047;DHT22;10682;50.874;3.656;2023-05-14T09:25:01;14.70;99.90
21047;DHT22;10682;50.874;3.656;2023-05-14T09:27:38;15.00;99.90
21047;DHT22;10682;50.874;3.656;2023-05-14T09:30:09;15.40;99.90
21047;DHT22;10682;50.874;3.656;2023-05-14T09:32:40;15.80;99.90
21047;DHT22;10682;50.874;3.656;2023-05-14T09:35:16;16.20;99.90
21047;DHT22;10682;50.874;3.656;2023-05-14T09:37:52;16.60;99.90
21047;DHT22;10682;50.874;3.656;2023-05-14T09:40:21;17.20;99.90
21047;DHT22;10682;50.874;3.656;2023-05-14T09:42:50;17.70;99.90
21047;DHT22;10682;50.874;3.656;2023-05-14T09:45:17;17.70;99.90
21047;DHT22;10682;50.874;3.656;2023-05-14T09:47:44;17.40;99.90
21047;DHT22;10682;50.874;3.656;2023-05-14T09:50:11;17.40;99.90
21047;DHT22;10682;50.874;3.656;2023-05-14T09:52:39;17.40;99.90
21047;DHT22;10682;50.874;3.656;2023-05-14T09:55:06;17.40;99.90
21047;DHT22;10682;50.874;3.656;2023-05-14T09:57:34;17.30;99.90
21047;DHT22;10682;50.874;3.656;2023-05-14T10:00:01;17.30;99.90
21047;DHT22;10682;50.874;3.656;2023-05-14T10:02:35;17.60;99.90
21047;DHT22;10682;50.874;3.656;2023-05-14T10:05:07;17.70;99.90
21047;DHT22;10682;50.874;3.656;2023-05-14T10:07:41;17.80;99.90
21047;DHT22;10682;50.874;3.656;2023-05-14T10:10:15;18.20;99.90
21047;DHT22;10682;50.874;3.656;2023-05-14T10:12:49;18.30;99.90
21047;DHT22;10682;50.874;3.656;2023-05-14T10:18:12;18.70;99.90
21047;DHT22;10682;50.874;3.656;2023-05-14T10:20:43;18.80;99.90
21047;DHT22;10682;50.874;3.656;2023-05-14T10:23:14;19.00;99.90
21047;DHT22;10682;50.874;3.656;2023-05-14T10:25:42;19.10;99.90
21047;DHT22;10682;50.874;3.656;2023-05-14T10:28:09;19.30;99.90
21047;DHT22;10682;50.874;3.656;2023-05-14T10:30:43;19.60;99.90
21047;DHT22;10682;50.874;3.656;2023-05-14T10:33:15;19.70;99.90
21047;DHT22;10682;50.874;3.656;2023-05-14T10:36:04;19.90;99.90
21047;DHT22;10682;50.874;3.656;2023-05-14T10:38:34;19.90;99.90
21047;DHT22;10682;50.874;3.656;2023-05-14T10:41:04;19.60;99.90
21047;DHT22;10682;50.874;3.656;2023-05-14T10:43:37;19.50;99.90
21047;DHT22;10682;50.874;3.656;2023-05-14T10:46:06;19.40;99.90
21047;DHT22;10682;50.874;3.656;2023-05-14T10:48:36;19.70;99.90
21047;DHT22;10682;50.874;3.656;2023-05-14T10:51:06;20.10;99.90
21047;DHT22;10682;50.874;3.656;2023-05-14T10:53:35;20.30;99.90
21047;DHT22;10682;50.874;3.656;2023-05-14T10:56:08;20.50;99.90
21047;DHT22;10682;50.874;3.656;2023-05-14T10:58:41;20.60;99.90
21047;DHT22;10682;50.874;3.656;2023-05-14T11:01:11;20.90;99.90
21047;DHT22;10682;50.874;3.656;2023-05-14T11:03:43;21.00;99.90
21047;DHT22;10682;50.874;3.656;2023-05-14T11:06:13;21.00;99.90
21047;DHT22;10682;50.874;3.656;2023-05-14T11:08:41;21.20;99.90
21047;DHT22;10682;50.874;3.656;2023-05-14T11:11:09;21.20;99.90
21047;DHT22;10682;50.874;3.656;2023-05-14T11:13:37;21.20;99.90
21047;DHT22;10682;50.874;3.656;2023-05-14T11:16:05;21.30;99.90
21047;DHT22;10682;50.874;3.656;2023-05-14T11:18:35;21.40;99.90
21047;DHT22;10682;50.874;3.656;2023-05-14T11:21:04;21.80;99.90
21047;DHT22;10682;50.874;3.656;2023-05-14T11:23:31;21.90;99.90
21047;DHT22;10682;50.874;3.656;2023-05-14T11:25:58;21.90;99.90
21047;DHT22;10682;50.874;3.656;2023-05-14T11:28:25;22.00;99.90
21047;DHT22;10682;50.874;3.656;2023-05-14T11:30:53;22.30;99.90
21047;DHT22;10682;50.874;3.656;2023-05-14T11:33:20;22.30;99.90
21047;DHT22;10682;50.874;3.656;2023-05-14T11:35:47;22.60;99.90
21047;DHT22;10682;50.874;3.656;2023-05-14T11:38:18;22.70;99.90
21047;DHT22;10682;50.874;3.656;2023-05-14T11:40:56;22.70;99.90
21047;DHT22;10682;50.874;3.656;2023-05-14T11:43:24;22.50;99.90
21047;DHT22;10682;50.874;3.656;2023-05-14T11:45:54;22.40;99.90
21047;DHT22;10682;50.874;3.656;2023-05-14T11:48:23;22.30;99.90
21047;DHT22;10682;50.874;3.656;2023-05-14T11:50:51;22.30;99.90
21047;DHT22;10682;50.874;3.656;2023-05-14T11:53:21;22.50;99.90
21047;DHT22;10682;50.874;3.656;2023-05-14T11:55:52;22.50;99.90
21047;DHT22;10682;50.874;3.656;2023-05-14T11:58:20;22.30;99.90
21047;DHT22;10682;50.874;3.656;2023-05-14T12:00:51;22.50;99.90
21047;DHT22;10682;50.874;3.656;2023-05-14T12:03:19;22.50;99.90
21047;DHT22;10682;50.874;3.656;2023-05-14T12:05:59;22.40;99.90
21047;DHT22;10682;50.874;3.656;2023-05-14T12:08:29;22.50;99.90
21047;DHT22;10682;50.874;3.656;2023-05-14T12:11:00;22.30;99.90
21047;DHT22;10682;50.874;3.656;2023-05-14T12:13:29;22.10;99.90
21047;DHT22;10682;50.874;3.656;2023-05-14T12:15:58;22.40;99.90
21047;DHT22;10682;50.874;3.656;2023-05-14T12:18:29;22.60;99.90
21047;DHT22;10682;50.874;3.656;2023-05-14T12:21:04;22.80;99.90
21047;DHT22;10682;50.874;3.656;2023-05-14T12:23:34;23.00;99.90
21047;DHT22;10682;50.874;3.656;2023-05-14T12:26:02;23.10;99.90
21047;DHT22;10682;50.874;3.656;2023-05-14T12:28:34;23.30;99.90
21047;DHT22;10682;50.874;3.656;2023-05-14T12:31:04;23.60;99.90
21047;DHT22;10682;50.874;3.656;2023-05-14T12:33:31;23.60;99.90
21047;DHT22;10682;50.874;3.656;2023-05-14T12:35:58;23.60;99.90
21047;DHT22;10682;50.874;3.656;2023-05-14T12:38:46;23.60;99.90
21047;DHT22;10682;50.874;3.656;2023-05-14T12:41:13;23.60;99.90
21047;DHT22;10682;50.874;3.656;2023-05-14T12:43:42;23.70;99.90
21047;DHT22;10682;50.874;3.656;2023-05-14T12:46:10;23.80;99.90
21047;DHT22;10682;50.874;3.656;2023-05-14T12:48:37;24.10;99.90
21047;DHT22;10682;50.874;3.656;2023-05-14T12:51:04;24.00;99.90
21047;DHT22;10682;50.874;3.656;2023-05-14T12:53:32;24.00;99.90
21047;DHT22;10682;50.874;3.656;2023-05-14T12:55:59;24.10;99.90
21047;DHT22;10682;50.874;3.656;2023-05-14T12:58:26;24.10;99.90
21047;DHT22;10682;50.874;3.656;2023-05-14T13:00:53;24.00;99.90
21047;DHT22;10682;50.874;3.656;2023-05-14T13:03:20;24.10;99.90
21047;DHT22;10682;50.874;3.656;2023-05-14T13:05:47;24.20;99.90
21047;DHT22;10682;50.874;3.656;2023-05-14T13:08:14;24.40;99.90
21047;DHT22;10682;50.874;3.656;2023-05-14T13:10:43;24.50;99.90
21047;DHT22;10682;50.874;3.656;2023-05-14T13:13:11;24.40;99.90
21047;DHT22;10682;50.874;3.656;2023-05-14T13:15:38;24.60;99.90
21047;DHT22;10682;50.874;3.656;2023-05-14T13:18:05;24.50;99.90
21047;DHT22;10682;50.874;3.656;2023-05-14T13:20:33;24.60;99.90
21047;DHT22;10682;50.874;3.656;2023-05-14T13:23:00;24.30;99.90
21047;DHT22;10682;50.874;3.656;2023-05-14T13:25:27;24.50;99.90
21047;DHT22;10682;50.874;3.656;2023-05-14T13:27:54;24.80;99.90
21047;DHT22;10682;50.874;3.656;2023-05-14T13:30:21;24.60;99.90
21047;DHT22;10682;50.874;3.656;2023-05-14T13:32:48;24.70;99.90
21047;DHT22;10682;50.874;3.656;2023-05-14T13:35:15;24.70;99.90
21047;DHT22;10682;50.874;3.656;2023-05-14T13:37:43;24.90;99.90
21047;DHT22;10682;50.874;3.656;2023-05-14T13:40:10;25.30;99.90
21047;DHT22;10682;50.874;3.656;2023-05-14T13:42:38;25.10;99.90
21047;DHT22;10682;50.874;3.656;2023-05-14T13:45:08;25.10;99.90
21047;DHT22;10682;50.874;3.656;2023-05-14T13:47:35;25.30;99.90
21047;DHT22;10682;50.874;3.656;2023-05-14T13:50:02;25.00;99.90
21047;DHT22;10682;50.874;3.656;2023-05-14T13:52:30;24.50;99.90
21047;DHT22;10682;50.874;3.656;2023-05-14T13:54:56;24.10;99.90
21047;DHT22;10682;50.874;3.656;2023-05-14T13:57:23;24.10;99.90
21047;DHT22;10682;50.874;3.656;2023-05-14T13:59:51;24.00;99.90
21047;DHT22;10682;50.874;3.656;2023-05-14T14:02:18;23.90;99.90
21047;DHT22;10682;50.874;3.656;2023-05-14T14:04:45;23.90;99.90
21047;DHT22;10682;50.874;3.656;2023-05-14T14:07:12;24.00;99.90
21047;DHT22;10682;50.874;3.656;2023-05-14T14:09:39;24.00;99.90
21047;DHT22;10682;50.874;3.656;2023-05-14T14:12:06;23.90;99.90
21047;DHT22;10682;50.874;3.656;2023-05-14T14:14:34;23.80;99.90
21047;DHT22;10682;50.874;3.656;2023-05-14T14:17:01;23.70;99.90
21047;DHT22;10682;50.874;3.656;2023-05-14T14:19:28;23.60;99.90
21047;DHT22;10682;50.874;3.656;2023-05-14T14:21:55;23.50;99.90
21047;DHT22;10682;50.874;3.656;2023-05-14T14:24:22;23.10;99.90
21047;DHT22;10682;50.874;3.656;2023-05-14T14:26:49;22.80;99.90
21047;DHT22;10682;50.874;3.656;2023-05-14T14:29:16;22.60;99.90
21047;DHT22;10682;50.874;3.656;2023-05-14T14:31:43;22.50;99.90
21047;DHT22;10682;50.874;3.656;2023-05-14T14:34:10;22.40;99.90
21047;DHT22;10682;50.874;3.656;2023-05-14T14:36:37;22.10;99.90
21047;DHT22;10682;50.874;3.656;2023-05-14T14:39:04;22.20;99.90
21047;DHT22;10682;50.874;3.656;2023-05-14T14:41:31;22.20;99.90
21047;DHT22;10682;50.874;3.656;2023-05-14T14:43:57;22.10;99.90
21047;DHT22;10682;50.874;3.656;2023-05-14T14:46:24;21.80;99.90
21047;DHT22;10682;50.874;3.656;2023-05-14T14:48:52;21.50;99.90
21047;DHT22;10682;50.874;3.656;2023-05-14T14:51:18;21.00;99.90
21047;DHT22;10682;50.874;3.656;2023-05-14T14:53:46;20.90;99.90
21047;DHT22;10682;50.874;3.656;2023-05-14T14:56:13;20.70;99.90
21047;DHT22;10682;50.874;3.656;2023-05-14T14:58:40;20.80;99.90
21047;DHT22;10682;50.874;3.656;2023-05-14T15:01:07;20.60;99.90
21047;DHT22;10682;50.874;3.656;2023-05-14T15:03:34;20.70;99.90
21047;DHT22;10682;50.874;3.656;2023-05-14T15:06:01;20.80;99.90
21047;DHT22;10682;50.874;3.656;2023-05-14T15:08:28;20.70;99.90
21047;DHT22;10682;50.874;3.656;2023-05-14T15:10:55;20.80;99.90
21047;DHT22;10682;50.874;3.656;2023-05-14T15:13:23;20.90;99.90
21047;DHT22;10682;50.874;3.656;2023-05-14T15:15:50;21.00;99.90
21047;DHT22;10682;50.874;3.656;2023-05-14T15:18:20;20.90;99.90
21047;DHT22;10682;50.874;3.656;2023-05-14T15:20:47;20.80;99.90
21047;DHT22;10682;50.874;3.656;2023-05-14T15:23:14;20.70;99.90
21047;DHT22;10682;50.874;3.656;2023-05-14T15:25:41;20.60;99.90
21047;DHT22;10682;50.874;3.656;2023-05-14T15:28:08;20.60;99.90
21047;DHT22;10682;50.874;3.656;2023-05-14T15:30:36;20.60;99.90
21047;DHT22;10682;50.874;3.656;2023-05-14T15:33:03;20.50;99.90
21047;DHT22;10682;50.874;3.656;2023-05-14T15:35:33;20.20;99.90
21047;DHT22;10682;50.874;3.656;2023-05-14T15:38:00;20.00;99.90
21047;DHT22;10682;50.874;3.656;2023-05-14T15:40:27;20.10;99.90
21047;DHT22;10682;50.874;3.656;2023-05-14T15:42:54;20.00;99.90
21047;DHT22;10682;50.874;3.656;2023-05-14T15:45:21;19.90;99.90
21047;DHT22;10682;50.874;3.656;2023-05-14T15:47:48;19.70;99.90